sensor_id;sensor_type;location;lat;lon;timestamp;P1;durP1;ratioP1;P2;durP2;ratioP2
7166;SDS011;3625;51.762;14.320;2023-04-15T00:01:14;31.60;;;24.50;;
7166;SDS011;3625;51.762;14.320;2023-04-15T00:03:46;30.60;;;23.50;;
7166;SDS011;3625;51.762;14.320;2023-04-15T00:06:18;30.43;;;24.47;;
7166;SDS011;3625;51.762;14.320;2023-04-15T00:08:47;31.57;;;24.77;;
7166;SDS011;3625;51.762;14.320;2023-04-15T00:11:17;29.77;;;23.57;;
7166;SDS011;3625;51.762;14.320;2023-04-15T00:13:46;34.40;;;26.30;;
7166;SDS011;3625;51.762;14.320;2023-04-15T00:16:14;31.50;;;25.23;;
7166;SDS011;3625;51.762;14.320;2023-04-15T00:18:43;32.07;;;25.07;;
7166;SDS011;3625;51.762;14.320;2023-04-15T00:21:13;31.63;;;24.33;;
7166;SDS011;3625;51.762;14.320;2023-04-15T00:23:42;31.10;;;24.63;;
7166;SDS011;3625;51.762;14.320;2023-04-15T00:26:15;35.27;;;26.63;;
7166;SDS011;3625;51.762;14.320;2023-04-15T00:28:46;36.07;;;25.73;;
7166;SDS011;3625;51.762;14.320;2023-04-15T00:31:15;32.57;;;25.07;;
7166;SDS011;3625;51.762;14.320;2023-04-15T00:33:44;33.37;;;27.37;;
7166;SDS011;3625;51.762;14.320;2023-04-15T00:36:15;31.40;;;24.70;;
7166;SDS011;3625;51.762;14.320;2023-04-15T00:38:44;32.47;;;24.60;;
7166;SDS011;3625;51.762;14.320;2023-04-15T00:41:13;33.33;;;25.77;;
7166;SDS011;3625;51.762;14.320;2023-04-15T00:43:42;31.67;;;24.20;;
7166;SDS011;3625;51.762;14.320;2023-04-15T00:46:11;36.53;;;27.23;;
7166;SDS011;3625;51.762;14.320;2023-04-15T00:48:42;34.97;;;27.73;;
7166;SDS011;3625;51.762;14.320;2023-04-15T00:51:12;31.47;;;25.67;;
7166;SDS011;3625;51.762;14.320;2023-04-15T00:53:43;34.60;;;27.13;;
7166;SDS011;3625;51.762;14.320;2023-04-15T00:56:12;39.40;;;28.83;;
7166;SDS011;3625;51.762;14.320;2023-04-15T00:58:41;33.70;;;27.13;;
7166;SDS011;3625;51.762;14.320;2023-04-15T01:01:10;34.87;;;26.53;;
7166;SDS011;3625;51.762;14.320;2023-04-15T01:03:39;32.67;;;24.73;;
7166;SDS011;3625;51.762;14.320;2023-04-15T01:06:08;36.00;;;28.60;;
7166;SDS011;3625;51.762;14.320;2023-04-15T01:08:38;36.70;;;27.57;;
7166;SDS011;3625;51.762;14.320;2023-04-15T01:11:08;34.00;;;26.57;;
7166;SDS011;3625;51.762;14.320;2023-04-15T01:13:39;32.57;;;25.57;;
7166;SDS011;3625;51.762;14.320;2023-04-15T01:16:08;35.17;;;27.83;;
7166;SDS011;3625;51.762;14.320;2023-04-15T01:18:37;36.20;;;28.07;;
7166;SDS011;3625;51.762;14.320;2023-04-15T01:21:06;34.60;;;25.87;;
7166;SDS011;3625;51.762;14.320;2023-04-15T01:23:36;41.00;;;29.63;;
7166;SDS011;3625;51.762;14.320;2023-04-15T01:26:07;39.33;;;30.63;;
7166;SDS011;3625;51.762;14.320;2023-04-15T01:28:37;36.70;;;28.37;;
7166;SDS011;3625;51.762;14.320;2023-04-15T01:31:06;40.63;;;30.40;;
7166;SDS011;3625;51.762;14.320;2023-04-15T01:33:36;40.90;;;29.87;;
7166;SDS011;3625;51.762;14.320;2023-04-15T01:36:05;39.23;;;29.67;;
7166;SDS011;3625;51.762;14.320;2023-04-15T01:38:36;37.73;;;28.77;;
7166;SDS011;3625;51.762;14.320;2023-04-15T01:41:06;37.43;;;27.80;;
7166;SDS011;3625;51.762;14.320;2023-04-15T01:43:35;38.90;;;28.20;;
7166;SDS011;3625;51.762;14.320;2023-04-15T01:46:04;37.63;;;29.33;;
7166;SDS011;3625;51.762;14.320;2023-04-15T01:48:32;40.60;;;30.43;;
7166;SDS011;3625;51.762;14.320;2023-04-15T01:51:03;38.33;;;27.50;;
7166;SDS011;3625;51.762;14.320;2023-04-15T01:53:32;41.97;;;31.17;;
7166;SDS011;3625;51.762;14.320;2023-04-15T01:56:01;37.27;;;27.23;;
7166;SDS011;3625;51.762;14.320;2023-04-15T01:58:31;36.93;;;28.37;;
7166;SDS011;3625;51.762;14.320;2023-04-15T02:01:00;38.13;;;29.30;;
7166;SDS011;3625;51.762;14.320;2023-04-15T02:03:32;40.50;;;29.53;;
7166;SDS011;3625;51.762;14.320;2023-04-15T02:06:01;41.37;;;29.57;;
7166;SDS011;3625;51.762;14.320;2023-04-15T02:08:31;39.13;;;29.07;;
7166;SDS011;3625;51.762;14.320;2023-04-15T02:11:00;39.03;;;30.03;;
7166;SDS011;3625;51.762;14.320;2023-04-15T02:13:31;37.67;;;28.27;;
7166;SDS011;3625;51.762;14.320;2023-04-15T02:16:00;36.30;;;27.40;;
7166;SDS011;3625;51.762;14.320;2023-04-15T02:18:30;34.63;;;27.23;;
7166;SDS011;3625;51.762;14.320;2023-04-15T02:20:59;42.20;;;30.97;;
7166;SDS011;3625;51.762;14.320;2023-04-15T02:23:28;39.33;;;29.77;;
7166;SDS011;3625;51.762;14.320;2023-04-15T02:25:56;37.23;;;27.83;;
7166;SDS011;3625;51.762;14.320;2023-04-15T02:28:31;37.97;;;29.47;;
7166;SDS011;3625;51.762;14.320;2023-04-15T02:31:00;41.33;;;28.97;;
7166;SDS011;3625;51.762;14.320;2023-04-15T02:33:32;38.07;;;29.77;;
7166;SDS011;3625;51.762;14.320;2023-04-15T02:36:00;39.37;;;28.53;;
7166;SDS011;3625;51.762;14.320;2023-04-15T02:38:29;36.23;;;26.23;;
7166;SDS011;3625;51.762;14.320;2023-04-15T02:41:13;40.70;;;30.30;;
7166;SDS011;3625;51.762;14.320;2023-04-15T02:43:45;43.87;;;30.20;;
7166;SDS011;3625;51.762;14.320;2023-04-15T02:46:14;40.97;;;30.23;;
7166;SDS011;3625;51.762;14.320;2023-04-15T02:48:43;39.57;;;30.43;;
7166;SDS011;3625;51.762;14.320;2023-04-15T02:51:13;40.60;;;29.63;;
7166;SDS011;3625;51.762;14.320;2023-04-15T02:53:45;36.87;;;27.63;;
7166;SDS011;3625;51.762;14.320;2023-04-15T02:56:14;36.13;;;27.83;;
7166;SDS011;3625;51.762;14.320;2023-04-15T02:58:46;42.53;;;29.67;;
7166;SDS011;3625;51.762;14.320;2023-04-15T03:01:16;39.10;;;27.63;;
7166;SDS011;3625;51.762;14.320;2023-04-15T03:03:46;32.57;;;24.13;;
7166;SDS011;3625;51.762;14.320;2023-04-15T03:06:15;31.90;;;24.47;;
7166;SDS011;3625;51.762;14.320;2023-04-15T03:08:44;34.97;;;23.87;;
7166;SDS011;3625;51.762;14.320;2023-04-15T03:11:13;31.17;;;23.30;;
7166;SDS011;3625;51.762;14.320;2023-04-15T03:13:43;29.47;;;22.03;;
7166;SDS011;3625;51.762;14.320;2023-04-15T03:16:26;26.57;;;19.90;;
7166;SDS011;3625;51.762;14.320;2023-04-15T03:18:56;21.63;;;18.10;;
7166;SDS011;3625;51.762;14.320;2023-04-15T03:21:28;22.67;;;17.40;;
7166;SDS011;3625;51.762;14.320;2023-04-15T03:23:57;24.47;;;18.63;;
7166;SDS011;3625;51.762;14.320;2023-04-15T03:26:30;20.57;;;17.50;;
7166;SDS011;3625;51.762;14.320;2023-04-15T03:29:03;22.73;;;17.73;;
7166;SDS011;3625;51.762;14.320;2023-04-15T03:31:36;20.63;;;16.83;;
7166;SDS011;3625;51.762;14.320;2023-04-15T03:34:07;22.73;;;16.53;;
7166;SDS011;3625;51.762;14.320;2023-04-15T03:36:40;19.37;;;16.43;;
7166;SDS011;3625;51.762;14.320;2023-04-15T03:39:11;19.53;;;16.40;;
7166;SDS011;3625;51.762;14.320;2023-04-15T03:41:40;19.60;;;16.60;;
7166;SDS011;3625;51.762;14.320;2023-04-15T03:44:09;18.90;;;15.80;;
7166;SDS011;3625;51.762;14.320;2023-04-15T03:46:40;19.10;;;17.13;;
7166;SDS011;3625;51.762;14.320;2023-04-15T03:49:09;20.33;;;16.50;;
7166;SDS011;3625;51.762;14.320;2023-04-15T03:51:41;17.30;;;15.40;;
7166;SDS011;3625;51.762;14.320;2023-04-15T03:54:09;17.10;;;14.90;;
7166;SDS011;3625;51.762;14.320;2023-04-15T03:56:40;19.40;;;14.37;;
7166;SDS011;3625;51.762;14.320;2023-04-15T03:59:09;16.03;;;14.33;;
7166;SDS011;3625;51.762;14.320;2023-04-15T04:01:41;18.50;;;13.80;;
7166;SDS011;3625;51.762;14.320;2023-04-15T04:04:10;16.57;;;13.70;;
7166;SDS011;3625;51.762;14.320;2023-04-15T04:06:39;15.53;;;13.37;;
7166;SDS011;3625;51.762;14.320;2023-04-15T04:09:08;15.67;;;13.07;;
7166;SDS011;3625;51.762;14.320;2023-04-15T04:11:38;15.63;;;13.17;;
7166;SDS011;3625;51.762;14.320;2023-04-15T04:14:07;17.10;;;13.53;;
7166;SDS011;3625;51.762;14.320;2023-04-15T04:16:41;16.10;;;14.00;;
7166;SDS011;3625;51.762;14.320;2023-04-15T04:19:10;15.90;;;13.70;;
7166;SDS011;3625;51.762;14.320;2023-04-15T04:21:40;15.53;;;12.40;;
7166;SDS011;3625;51.762;14.320;2023-04-15T04:24:10;14.63;;;12.77;;
7166;SDS011;3625;51.762;14.320;2023-04-15T04:26:39;14.73;;;13.17;;
7166;SDS011;3625;51.762;14.320;2023-04-15T04:29:10;14.80;;;13.20;;
7166;SDS011;3625;51.762;14.320;2023-04-15T04:31:39;14.23;;;12.73;;
7166;SDS011;3625;51.762;14.320;2023-04-15T04:34:11;15.70;;;12.33;;
7166;SDS011;3625;51.762;14.320;2023-04-15T04:36:40;14.93;;;13.33;;
7166;SDS011;3625;51.762;14.320;2023-04-15T04:39:09;16.63;;;13.77;;
7166;SDS011;3625;51.762;14.320;2023-04-15T04:41:38;14.07;;;12.67;;
7166;SDS011;3625;51.762;14.320;2023-04-15T04:44:07;14.20;;;12.60;;
7166;SDS011;3625;51.762;14.320;2023-04-15T04:46:35;14.27;;;12.73;;
7166;SDS011;3625;51.762;14.320;2023-04-15T04:49:08;14.37;;;12.30;;
7166;SDS011;3625;51.762;14.320;2023-04-15T04:51:36;16.37;;;13.07;;
7166;SDS011;3625;51.762;14.320;2023-04-15T04:54:05;14.70;;;13.17;;
7166;SDS011;3625;51.762;14.320;2023-04-15T04:56:38;13.80;;;12.33;;
7166;SDS011;3625;51.762;14.320;2023-04-15T04:59:07;13.53;;;12.00;;
7166;SDS011;3625;51.762;14.320;2023-04-15T05:01:38;13.97;;;12.37;;
7166;SDS011;3625;51.762;14.320;2023-04-15T05:04:11;15.10;;;13.50;;
7166;SDS011;3625;51.762;14.320;2023-04-15T05:06:40;16.10;;;13.63;;
7166;SDS011;3625;51.762;14.320;2023-04-15T05:09:11;14.93;;;13.07;;
7166;SDS011;3625;51.762;14.320;2023-04-15T05:11:40;13.07;;;11.77;;
7166;SDS011;3625;51.762;14.320;2023-04-15T05:14:09;16.47;;;13.70;;
7166;SDS011;3625;51.762;14.320;2023-04-15T05:16:37;14.57;;;12.87;;
7166;SDS011;3625;51.762;14.320;2023-04-15T05:19:09;14.33;;;12.73;;
7166;SDS011;3625;51.762;14.320;2023-04-15T05:21:40;14.40;;;12.53;;
7166;SDS011;3625;51.762;14.320;2023-04-15T05:24:09;13.53;;;12.13;;
7166;SDS011;3625;51.762;14.320;2023-04-15T05:26:43;16.23;;;12.63;;
7166;SDS011;3625;51.762;14.320;2023-04-15T05:29:14;14.10;;;12.60;;
7166;SDS011;3625;51.762;14.320;2023-04-15T05:31:42;15.50;;;12.53;;
7166;SDS011;3625;51.762;14.320;2023-04-15T05:34:13;14.10;;;12.40;;
7166;SDS011;3625;51.762;14.320;2023-04-15T05:36:43;13.17;;;11.80;;
7166;SDS011;3625;51.762;14.320;2023-04-15T05:39:11;15.23;;;13.50;;
7166;SDS011;3625;51.762;14.320;2023-04-15T05:41:42;14.30;;;12.77;;
7166;SDS011;3625;51.762;14.320;2023-04-15T05:44:12;14.73;;;13.13;;
7166;SDS011;3625;51.762;14.320;2023-04-15T05:46:41;13.63;;;12.23;;
7166;SDS011;3625;51.762;14.320;2023-04-15T05:49:14;13.77;;;11.63;;
7166;SDS011;3625;51.762;14.320;2023-04-15T05:51:42;14.13;;;12.37;;
7166;SDS011;3625;51.762;14.320;2023-04-15T05:54:13;14.33;;;12.33;;
7166;SDS011;3625;51.762;14.320;2023-04-15T05:56:47;14.30;;;12.80;;
7166;SDS011;3625;51.762;14.320;2023-04-15T05:59:17;13.83;;;12.43;;
7166;SDS011;3625;51.762;14.320;2023-04-15T06:01:51;16.57;;;12.87;;
7166;SDS011;3625;51.762;14.320;2023-04-15T06:04:26;13.67;;;12.27;;
7166;SDS011;3625;51.762;14.320;2023-04-15T06:06:55;13.80;;;12.33;;
7166;SDS011;3625;51.762;14.320;2023-04-15T06:09:24;13.77;;;12.47;;
7166;SDS011;3625;51.762;14.320;2023-04-15T06:11:54;15.60;;;12.63;;
7166;SDS011;3625;51.762;14.320;2023-04-15T06:14:23;13.53;;;11.37;;
7166;SDS011;3625;51.762;14.320;2023-04-15T06:16:52;14.57;;;13.10;;
7166;SDS011;3625;51.762;14.320;2023-04-15T06:19:21;15.57;;;13.47;;
7166;SDS011;3625;51.762;14.320;2023-04-15T06:21:51;14.97;;;13.00;;
7166;SDS011;3625;51.762;14.320;2023-04-15T06:24:19;14.70;;;13.20;;
7166;SDS011;3625;51.762;14.320;2023-04-15T06:26:48;15.10;;;13.50;;
7166;SDS011;3625;51.762;14.320;2023-04-15T06:29:17;16.13;;;13.33;;
7166;SDS011;3625;51.762;14.320;2023-04-15T06:31:46;15.63;;;14.07;;
7166;SDS011;3625;51.762;14.320;2023-04-15T06:34:15;14.63;;;13.07;;
7166;SDS011;3625;51.762;14.320;2023-04-15T06:36:44;15.33;;;13.70;;
7166;SDS011;3625;51.762;14.320;2023-04-15T06:39:14;14.70;;;13.30;;
7166;SDS011;3625;51.762;14.320;2023-04-15T06:41:43;13.80;;;12.40;;
7166;SDS011;3625;51.762;14.320;2023-04-15T06:44:12;14.97;;;13.47;;
7166;SDS011;3625;51.762;14.320;2023-04-15T06:46:41;15.60;;;13.80;;
7166;SDS011;3625;51.762;14.320;2023-04-15T06:49:10;14.53;;;13.03;;
7166;SDS011;3625;51.762;14.320;2023-04-15T06:51:38;17.07;;;13.97;;
7166;SDS011;3625;51.762;14.320;2023-04-15T06:54:09;16.23;;;14.73;;
7166;SDS011;3625;51.762;14.320;2023-04-15T06:56:39;14.80;;;13.40;;
7166;SDS011;3625;51.762;14.320;2023-04-15T06:59:08;15.83;;;14.30;;
7166;SDS011;3625;51.762;14.320;2023-04-15T07:01:36;16.13;;;13.83;;
7166;SDS011;3625;51.762;14.320;2023-04-15T07:04:05;14.93;;;13.30;;
7166;SDS011;3625;51.762;14.320;2023-04-15T07:06:33;17.77;;;14.77;;
7166;SDS011;3625;51.762;14.320;2023-04-15T07:09:02;16.57;;;14.83;;
7166;SDS011;3625;51.762;14.320;2023-04-15T07:11:31;15.17;;;13.67;;
7166;SDS011;3625;51.762;14.320;2023-04-15T07:14:01;16.17;;;14.30;;
7166;SDS011;3625;51.762;14.320;2023-04-15T07:16:30;15.97;;;14.37;;
7166;SDS011;3625;51.762;14.320;2023-04-15T07:18:59;18.10;;;15.07;;
7166;SDS011;3625;51.762;14.320;2023-04-15T07:21:27;16.23;;;14.63;;
7166;SDS011;3625;51.762;14.320;2023-04-15T07:23:56;16.27;;;14.63;;
7166;SDS011;3625;51.762;14.320;2023-04-15T07:26:25;17.17;;;15.47;;
7166;SDS011;3625;51.762;14.320;2023-04-15T07:28:53;15.63;;;14.00;;
7166;SDS011;3625;51.762;14.320;2023-04-15T07:31:23;15.87;;;14.27;;
7166;SDS011;3625;51.762;14.320;2023-04-15T07:33:52;15.80;;;14.20;;
7166;SDS011;3625;51.762;14.320;2023-04-15T07:36:21;16.13;;;14.53;;
7166;SDS011;3625;51.762;14.320;2023-04-15T07:38:50;17.40;;;14.90;;
7166;SDS011;3625;51.762;14.320;2023-04-15T07:41:19;15.67;;;14.07;;
7166;SDS011;3625;51.762;14.320;2023-04-15T07:43:50;14.23;;;12.83;;
7166;SDS011;3625;51.762;14.320;2023-04-15T07:46:19;14.60;;;13.20;;
7166;SDS011;3625;51.762;14.320;2023-04-15T07:48:51;15.00;;;13.50;;
7166;SDS011;3625;51.762;14.320;2023-04-15T07:51:19;16.40;;;14.70;;
7166;SDS011;3625;51.762;14.320;2023-04-15T07:53:48;15.57;;;13.97;;
7166;SDS011;3625;51.762;14.320;2023-04-15T07:56:17;16.43;;;14.73;;
7166;SDS011;3625;51.762;14.320;2023-04-15T07:58:46;15.80;;;14.27;;
7166;SDS011;3625;51.762;14.320;2023-04-15T08:01:14;17.73;;;15.03;;
7166;SDS011;3625;51.762;14.320;2023-04-15T08:03:43;16.73;;;14.27;;
7166;SDS011;3625;51.762;14.320;2023-04-15T08:06:14;16.10;;;14.67;;
7166;SDS011;3625;51.762;14.320;2023-04-15T08:08:42;16.30;;;14.53;;
7166;SDS011;3625;51.762;14.320;2023-04-15T08:11:11;15.43;;;13.80;;
7166;SDS011;3625;51.762;14.320;2023-04-15T08:13:40;15.00;;;13.57;;
7166;SDS011;3625;51.762;14.320;2023-04-15T08:16:17;16.13;;;14.43;;
7166;SDS011;3625;51.762;14.320;2023-04-15T08:18:48;15.67;;;14.00;;
7166;SDS011;3625;51.762;14.320;2023-04-15T08:21:20;16.43;;;14.83;;
7166;SDS011;3625;51.762;14.320;2023-04-15T08:23:50;17.77;;;14.93;;
7166;SDS011;3625;51.762;14.320;2023-04-15T08:26:20;16.80;;;15.10;;
7166;SDS011;3625;51.762;14.320;2023-04-15T08:28:49;17.80;;;15.90;;
7166;SDS011;3625;51.762;14.320;2023-04-15T08:31:18;17.97;;;16.07;;
7166;SDS011;3625;51.762;14.320;2023-04-15T08:33:47;16.17;;;14.60;;
7166;SDS011;3625;51.762;14.320;2023-04-15T08:36:22;18.87;;;15.83;;
7166;SDS011;3625;51.762;14.320;2023-04-15T08:38:50;17.23;;;15.53;;
7166;SDS011;3625;51.762;14.320;2023-04-15T08:41:20;15.37;;;13.83;;
7166;SDS011;3625;51.762;14.320;2023-04-15T08:43:51;17.23;;;15.50;;
7166;SDS011;3625;51.762;14.320;2023-04-15T08:46:25;17.97;;;16.07;;
7166;SDS011;3625;51.762;14.320;2023-04-15T08:48:55;18.27;;;16.47;;
7166;SDS011;3625;51.762;14.320;2023-04-15T08:51:27;18.30;;;16.40;;
7166;SDS011;3625;51.762;14.320;2023-04-15T08:53:55;19.30;;;17.17;;
7166;SDS011;3625;51.762;14.320;2023-04-15T08:56:24;18.73;;;16.73;;
7166;SDS011;3625;51.762;14.320;2023-04-15T08:58:54;21.00;;;17.47;;
7166;SDS011;3625;51.762;14.320;2023-04-15T09:01:23;19.47;;;17.37;;
7166;SDS011;3625;51.762;14.320;2023-04-15T09:03:53;18.47;;;16.53;;
7166;SDS011;3625;51.762;14.320;2023-04-15T09:06:22;17.50;;;15.70;;
7166;SDS011;3625;51.762;14.320;2023-04-15T09:08:58;20.67;;;17.77;;
7166;SDS011;3625;51.762;14.320;2023-04-15T09:11:28;17.33;;;15.50;;
7166;SDS011;3625;51.762;14.320;2023-04-15T09:13:57;19.73;;;17.20;;
7166;SDS011;3625;51.762;14.320;2023-04-15T09:16:26;19.10;;;17.10;;
7166;SDS011;3625;51.762;14.320;2023-04-15T09:18:54;19.50;;;17.40;;
7166;SDS011;3625;51.762;14.320;2023-04-15T09:21:23;17.23;;;15.53;;
7166;SDS011;3625;51.762;14.320;2023-04-15T09:23:53;19.33;;;17.37;;
7166;SDS011;3625;51.762;14.320;2023-04-15T09:26:31;20.27;;;18.17;;
7166;SDS011;3625;51.762;14.320;2023-04-15T09:29:04;20.20;;;17.90;;
7166;SDS011;3625;51.762;14.320;2023-04-15T09:31:34;19.97;;;18.03;;
7166;SDS011;3625;51.762;14.320;2023-04-15T09:34:03;21.80;;;18.53;;
7166;SDS011;3625;51.762;14.320;2023-04-15T09:36:37;21.60;;;18.70;;
7166;SDS011;3625;51.762;14.320;2023-04-15T09:39:20;19.57;;;17.03;;
7166;SDS011;3625;51.762;14.320;2023-04-15T09:42:06;17.47;;;15.67;;
7166;SDS011;3625;51.762;14.320;2023-04-15T09:44:35;15.17;;;13.67;;
7166;SDS011;3625;51.762;14.320;2023-04-15T09:47:04;12.27;;;11.07;;
7166;SDS011;3625;51.762;14.320;2023-04-15T09:49:33;7.03;;;6.43;;
7166;SDS011;3625;51.762;14.320;2023-04-15T09:52:05;3.97;;;3.63;;
7166;SDS011;3625;51.762;14.320;2023-04-15T09:54:36;3.63;;;3.33;;
7166;SDS011;3625;51.762;14.320;2023-04-15T09:57:07;3.20;;;2.90;;
7166;SDS011;3625;51.762;14.320;2023-04-15T09:59:37;2.60;;;2.40;;
7166;SDS011;3625;51.762;14.320;2023-04-15T10:02:06;2.38;;;2.17;;
7166;SDS011;3625;51.762;14.320;2023-04-15T10:04:36;2.73;;;2.53;;
7166;SDS011;3625;51.762;14.320;2023-04-15T10:07:07;2.00;;;1.90;;
7166;SDS011;3625;51.762;14.320;2023-04-15T10:09:38;2.60;;;2.40;;
7166;SDS011;3625;51.762;14.320;2023-04-15T10:12:08;2.37;;;2.17;;
7166;SDS011;3625;51.762;14.320;2023-04-15T10:14:37;2.20;;;2.00;;
7166;SDS011;3625;51.762;14.320;2023-04-15T10:17:09;2.17;;;1.85;;
7166;SDS011;3625;51.762;14.320;2023-04-15T10:19:42;2.92;;;1.90;;
7166;SDS011;3625;51.762;14.320;2023-04-15T10:22:13;2.22;;;2.00;;
7166;SDS011;3625;51.762;14.320;2023-04-15T10:24:43;2.17;;;1.90;;
7166;SDS011;3625;51.762;14.320;2023-04-15T10:27:15;3.10;;;2.00;;
7166;SDS011;3625;51.762;14.320;2023-04-15T10:29:47;1.83;;;1.73;;
7166;SDS011;3625;51.762;14.320;2023-04-15T10:32:18;2.40;;;2.03;;
7166;SDS011;3625;51.762;14.320;2023-04-15T10:34:48;3.22;;;2.17;;
7166;SDS011;3625;51.762;14.320;2023-04-15T10:37:20;1.85;;;1.75;;
7166;SDS011;3625;51.762;14.320;2023-04-15T10:40:26;3.67;;;2.20;;
7166;SDS011;3625;51.762;14.320;2023-04-15T10:42:59;2.00;;;1.90;;
7166;SDS011;3625;51.762;14.320;2023-04-15T10:45:31;2.75;;;1.95;;
7166;SDS011;3625;51.762;14.320;2023-04-15T10:48:02;2.33;;;2.13;;
7166;SDS011;3625;51.762;14.320;2023-04-15T10:50:35;2.40;;;2.20;;
7166;SDS011;3625;51.762;14.320;2023-04-15T10:53:05;2.30;;;2.10;;
7166;SDS011;3625;51.762;14.320;2023-04-15T10:55:37;2.28;;;2.08;;
7166;SDS011;3625;51.762;14.320;2023-04-15T10:58:07;2.00;;;1.80;;
7166;SDS011;3625;51.762;14.320;2023-04-15T11:00:38;3.25;;;2.38;;
7166;SDS011;3625;51.762;14.320;2023-04-15T11:03:08;2.00;;;1.90;;
7166;SDS011;3625;51.762;14.320;2023-04-15T11:05:48;2.25;;;2.10;;
7166;SDS011;3625;51.762;14.320;2023-04-15T11:08:19;2.15;;;1.77;;
7166;SDS011;3625;51.762;14.320;2023-04-15T11:11:24;2.13;;;2.03;;
7166;SDS011;3625;51.762;14.320;2023-04-15T11:14:43;2.78;;;2.00;;
7166;SDS011;3625;51.762;14.320;2023-04-15T11:17:14;1.95;;;1.85;;
7166;SDS011;3625;51.762;14.320;2023-04-15T11:19:55;2.15;;;1.98;;
7166;SDS011;3625;51.762;14.320;2023-04-15T11:22:26;2.22;;;2.03;;
7166;SDS011;3625;51.762;14.320;2023-04-15T11:24:56;2.97;;;2.03;;
7166;SDS011;3625;51.762;14.320;2023-04-15T11:27:24;3.05;;;2.55;;
7166;SDS011;3625;51.762;14.320;2023-04-15T11:30:19;2.40;;;2.20;;
7166;SDS011;3625;51.762;14.320;2023-04-15T11:32:54;2.30;;;2.10;;
7166;SDS011;3625;51.762;14.320;2023-04-15T11:35:27;2.05;;;1.92;;
7166;SDS011;3625;51.762;14.320;2023-04-15T11:37:56;1.77;;;1.67;;
7166;SDS011;3625;51.762;14.320;2023-04-15T11:40:28;1.92;;;1.80;;
7166;SDS011;3625;51.762;14.320;2023-04-15T11:43:07;2.53;;;2.30;;
7166;SDS011;3625;51.762;14.320;2023-04-15T11:45:48;2.55;;;2.35;;
7166;SDS011;3625;51.762;14.320;2023-04-15T11:48:24;2.60;;;2.40;;
7166;SDS011;3625;51.762;14.320;2023-04-15T11:51:01;2.42;;;2.22;;
7166;SDS011;3625;51.762;14.320;2023-04-15T11:53:37;2.72;;;2.30;;
7166;SDS011;3625;51.762;14.320;2023-04-15T11:56:09;2.35;;;2.22;;
7166;SDS011;3625;51.762;14.320;2023-04-15T11:58:52;2.50;;;2.30;;
7166;SDS011;3625;51.762;14.320;2023-04-15T12:01:33;2.58;;;2.38;;
7166;SDS011;3625;51.762;14.320;2023-04-15T12:04:09;2.95;;;2.13;;
7166;SDS011;3625;51.762;14.320;2023-04-15T12:06:40;2.72;;;2.13;;
7166;SDS011;3625;51.762;14.320;2023-04-15T12:09:09;2.92;;;2.20;;
7166;SDS011;3625;51.762;14.320;2023-04-15T12:11:41;2.00;;;1.90;;
7166;SDS011;3625;51.762;14.320;2023-04-15T12:14:18;3.47;;;2.35;;
7166;SDS011;3625;51.762;14.320;2023-04-15T12:16:53;2.63;;;2.42;;
7166;SDS011;3625;51.762;14.320;2023-04-15T12:19:27;2.40;;;2.20;;
7166;SDS011;3625;51.762;14.320;2023-04-15T12:21:58;1.98;;;1.88;;
7166;SDS011;3625;51.762;14.320;2023-04-15T12:24:30;2.38;;;2.17;;
7166;SDS011;3625;51.762;14.320;2023-04-15T12:27:01;2.42;;;2.22;;
7166;SDS011;3625;51.762;14.320;2023-04-15T12:29:32;2.70;;;2.10;;
7166;SDS011;3625;51.762;14.320;2023-04-15T12:32:05;2.85;;;2.35;;
7166;SDS011;3625;51.762;14.320;2023-04-15T12:34:41;2.60;;;2.40;;
7166;SDS011;3625;51.762;14.320;2023-04-15T12:37:16;2.50;;;2.30;;
7166;SDS011;3625;51.762;14.320;2023-04-15T12:39:46;5.38;;;2.97;;
7166;SDS011;3625;51.762;14.320;2023-04-15T12:42:16;3.10;;;2.72;;
7166;SDS011;3625;51.762;14.320;2023-04-15T12:44:45;2.60;;;2.40;;
7166;SDS011;3625;51.762;14.320;2023-04-15T12:47:15;2.92;;;2.63;;
7166;SDS011;3625;51.762;14.320;2023-04-15T12:49:50;2.78;;;2.40;;
7166;SDS011;3625;51.762;14.320;2023-04-15T12:52:25;2.78;;;2.58;;
7166;SDS011;3625;51.762;14.320;2023-04-15T12:54:54;3.25;;;2.70;;
7166;SDS011;3625;51.762;14.320;2023-04-15T12:57:22;2.70;;;2.50;;
7166;SDS011;3625;51.762;14.320;2023-04-15T12:59:51;3.15;;;2.95;;
7166;SDS011;3625;51.762;14.320;2023-04-15T13:02:22;3.20;;;2.90;;
7166;SDS011;3625;51.762;14.320;2023-04-15T13:04:54;3.20;;;2.90;;
7166;SDS011;3625;51.762;14.320;2023-04-15T13:07:22;4.32;;;3.03;;
7166;SDS011;3625;51.762;14.320;2023-04-15T13:09:51;2.72;;;2.53;;
7166;SDS011;3625;51.762;14.320;2023-04-15T13:12:20;5.13;;;4.07;;
7166;SDS011;3625;51.762;14.320;2023-04-15T13:14:49;3.53;;;3.20;;
7166;SDS011;3625;51.762;14.320;2023-04-15T13:17:18;3.50;;;3.20;;
7166;SDS011;3625;51.762;14.320;2023-04-15T13:19:48;3.10;;;2.90;;
7166;SDS011;3625;51.762;14.320;2023-04-15T13:22:17;2.80;;;2.60;;
7166;SDS011;3625;51.762;14.320;2023-04-15T13:24:46;4.47;;;3.50;;
7166;SDS011;3625;51.762;14.320;2023-04-15T13:27:15;3.40;;;3.10;;
7166;SDS011;3625;51.762;14.320;2023-04-15T13:29:43;4.22;;;3.85;;
7166;SDS011;3625;51.762;14.320;2023-04-15T13:32:14;3.83;;;3.53;;
7166;SDS011;3625;51.762;14.320;2023-04-15T13:34:44;3.80;;;3.50;;
7166;SDS011;3625;51.762;14.320;2023-04-15T13:37:13;3.80;;;3.50;;
7166;SDS011;3625;51.762;14.320;2023-04-15T13:39:42;3.40;;;3.10;;
7166;SDS011;3625;51.762;14.320;2023-04-15T13:42:11;3.97;;;3.67;;
7166;SDS011;3625;51.762;14.320;2023-04-15T13:44:39;5.22;;;3.67;;
7166;SDS011;3625;51.762;14.320;2023-04-15T13:47:08;3.60;;;3.30;;
7166;SDS011;3625;51.762;14.320;2023-04-15T13:49:38;4.30;;;3.90;;
7166;SDS011;3625;51.762;14.320;2023-04-15T13:52:07;3.58;;;3.28;;
7166;SDS011;3625;51.762;14.320;2023-04-15T13:54:38;4.43;;;4.13;;
7166;SDS011;3625;51.762;14.320;2023-04-15T13:57:07;4.18;;;3.83;;
7166;SDS011;3625;51.762;14.320;2023-04-15T13:59:36;4.00;;;3.70;;
7166;SDS011;3625;51.762;14.320;2023-04-15T14:02:05;4.18;;;3.88;;
7166;SDS011;3625;51.762;14.320;2023-04-15T14:04:34;3.88;;;3.58;;
7166;SDS011;3625;51.762;14.320;2023-04-15T14:07:03;3.75;;;3.40;;
7166;SDS011;3625;51.762;14.320;2023-04-15T14:09:31;4.57;;;3.33;;
7166;SDS011;3625;51.762;14.320;2023-04-15T14:12:03;3.92;;;3.63;;
7166;SDS011;3625;51.762;14.320;2023-04-15T14:14:31;4.97;;;4.50;;
7166;SDS011;3625;51.762;14.320;2023-04-15T14:17:00;4.50;;;4.15;;
7166;SDS011;3625;51.762;14.320;2023-04-15T14:19:30;5.22;;;4.68;;
7166;SDS011;3625;51.762;14.320;2023-04-15T14:21:59;3.83;;;3.53;;
7166;SDS011;3625;51.762;14.320;2023-04-15T14:24:28;4.35;;;3.95;;
7166;SDS011;3625;51.762;14.320;2023-04-15T14:26:57;4.13;;;3.83;;
7166;SDS011;3625;51.762;14.320;2023-04-15T14:29:28;4.65;;;4.25;;
7166;SDS011;3625;51.762;14.320;2023-04-15T14:31:57;4.70;;;4.25;;
7166;SDS011;3625;51.762;14.320;2023-04-15T14:34:37;4.30;;;3.90;;
7166;SDS011;3625;51.762;14.320;2023-04-15T14:37:06;4.65;;;4.25;;
7166;SDS011;3625;51.762;14.320;2023-04-15T14:39:35;5.50;;;5.00;;
7166;SDS011;3625;51.762;14.320;2023-04-15T14:42:07;5.47;;;4.97;;
7166;SDS011;3625;51.762;14.320;2023-04-15T14:44:37;4.57;;;4.22;;
7166;SDS011;3625;51.762;14.320;2023-04-15T14:47:06;5.00;;;4.00;;
7166;SDS011;3625;51.762;14.320;2023-04-15T14:49:34;4.40;;;4.00;;
7166;SDS011;3625;51.762;14.320;2023-04-15T14:52:03;4.05;;;3.75;;
7166;SDS011;3625;51.762;14.320;2023-04-15T14:54:32;4.97;;;4.57;;
7166;SDS011;3625;51.762;14.320;2023-04-15T14:57:00;4.88;;;4.47;;
7166;SDS011;3625;51.762;14.320;2023-04-15T14:59:29;4.72;;;4.32;;
7166;SDS011;3625;51.762;14.320;2023-04-15T15:05:49;5.10;;;4.38;;
7166;SDS011;3625;51.762;14.320;2023-04-15T15:08:17;4.80;;;4.30;;